Time;durP1;ratioP1;P1;durP2;ratioP2;P2;SDS_P1;SDS_P2;PMS_P1;PMS_P2;Temp;Humidity;BMP_temperature;BMP_pressure;BME280_temperature;BME280_humidity;BME280_pressure;Samples;Min_cycle;Max_cycle;Signal;HPM_P1;HPM_P2
2021/12/17 00:00:42;;;;;;;33.00;19.33;;;;;;;8.05;100.00;98320.91;4993628;28;20090;-50
2021/12/17 00:03:18;;;;;;;33.63;20.52;;;;;;;7.73;100.00;98305.09;4970565;28;20081;-46
2021/12/17 00:08:38;;;;;;;31.55;19.73;;;;;;;8.04;100.00;98291.16;4992807;28;20085;-50
2021/12/17 00:11:07;;;;;;;31.90;19.08;;;;;;;7.94;100.00;98286.50;4987268;28;20076;-49
2021/12/17 00:13:37;;;;;;;33.15;19.52;;;;;;;7.61;100.00;98295.25;4985782;28;20070;-49
2021/12/17 00:16:13;;;;;;;31.42;19.85;;;;;;;8.03;100.00;98320.16;4990095;28;20585;-46
2021/12/17 00:18:54;;;;;;;35.40;20.10;;;;;;;7.71;100.00;98316.59;4986881;28;20078;-46
2021/12/17 00:44:15;;;;;;;38.63;20.45;;;;;;;7.73;100.00;98320.00;4969949;28;20089;-48
2021/12/17 00:49:56;;;;;;;31.60;19.33;;;;;;;7.31;100.00;98327.41;4945482;28;20645;-49
2021/12/17 00:52:27;;;;;;;32.58;19.73;;;;;;;7.28;100.00;98321.47;4982035;28;20090;-52
2021/12/17 00:54:57;;;;;;;31.77;19.58;;;;;;;8.08;100.00;98310.22;4993300;28;20078;-49
2021/12/17 00:57:30;;;;;;;32.63;19.48;;;;;;;8.18;100.00;98305.31;4987567;28;20061;-48
2021/12/17 00:59:59;;;;;;;31.45;19.13;;;;;;;7.70;100.00;98310.50;4985200;28;20706;-51
2021/12/17 01:02:30;;;;;;;30.65;18.98;;;;;;;8.18;100.00;98315.84;4985147;28;20105;-46
2021/12/17 01:05:00;;;;;;;31.80;18.98;;;;;;;8.11;100.00;98310.06;4974782;28;20059;-46
2021/12/17 01:07:32;;;;;;;32.83;19.60;;;;;;;8.17;100.00;98295.75;4967525;28;20531;-46
2021/12/17 01:10:03;;;;;;;33.28;19.70;;;;;;;8.47;100.00;98293.25;4966263;28;20101;-48
2021/12/17 01:12:32;;;;;;;29.90;19.00;;;;;;;8.49;100.00;98292.19;4986597;28;20485;-46
2021/12/17 01:15:00;;;;;;;30.60;18.85;;;;;;;8.08;100.00;98292.69;4967597;28;20062;-46
2021/12/17 01:17:31;;;;;;;31.08;18.77;;;;;;;8.08;100.00;98286.56;4964830;28;20069;-45
2021/12/17 01:22:58;;;;;;;32.42;18.33;;;;;;;8.49;100.00;98278.19;4969310;28;20122;-45
2021/12/17 01:25:41;;;;;;;;;;;;;;;8.07;100.00;98277.00;4994221;28;20078;-50
2021/12/17 01:36:45;;;;;;;34.30;19.05;;;;;;;7.93;100.00;98269.88;4957459;28;20476;-53
2021/12/17 01:40:30;;;;;;;32.72;19.17;;;;;;;7.76;100.00;98276.03;4963030;28;20070;-52
2021/12/17 01:42:30;;;;;;;31.27;18.38;;;;;;;8.19;100.00;98283.34;4956915;28;20078;-49
2021/12/17 01:44:58;;;;;;;32.55;19.77;;;;;;;7.87;100.00;98277.25;4964389;28;20074;-50
2021/12/17 01:47:27;;;;;;;33.45;20.25;;;;;;;8.28;100.00;98270.56;4962207;28;20074;-46
2021/12/17 02:01:02;;;;;;;32.83;20.33;;;;;;;7.73;100.00;98283.25;4967466;28;20108;-50
2021/12/17 02:03:30;;;;;;;32.13;19.48;;;;;;;7.98;100.00;98277.50;4983022;28;20256;-51
2021/12/17 02:06:02;;;;;;;33.92;19.83;;;;;;;7.97;100.00;98273.19;4992145;28;20076;-47
2021/12/17 02:08:30;;;;;;;33.88;20.02;;;;;;;8.55;100.00;98273.44;4969275;28;20083;-53
2021/12/17 02:11:46;;;;;;;33.38;19.98;;;;;;;8.23;100.00;98269.13;4957809;28;20051;-48
2021/12/17 02:19:46;;;;;;;30.20;18.92;;;;;;;8.42;100.00;98263.72;4962699;28;20851;-49
2021/12/17 02:31:05;;;;;;;29.95;18.95;;;;;;;8.74;100.00;98244.31;4989700;28;20092;-46
2021/12/17 02:33:33;;;;;;;;;;;;;;;8.77;100.00;98236.25;4990201;28;20510;-50
2021/12/17 02:36:02;;;;;;;32.58;18.08;;;;;;;8.79;100.00;98239.63;4987581;28;20003;-50
2021/12/17 02:38:38;;;;;;;29.50;17.67;;;;;;;8.91;100.00;98245.97;4980446;28;20528;-50
2021/12/17 02:46:40;;;;;;;35.22;20.33;;;;;;;9.07;100.00;98239.78;4970457;28;20109;-49
2021/12/17 02:49:09;;;;;;;31.02;18.35;;;;;;;9.06;100.00;98244.22;4985201;28;20094;-50
2021/12/17 02:51:37;;;;;;;30.75;18.65;;;;;;;8.40;100.00;98239.31;4987665;28;20089;-49
2021/12/17 02:54:07;;;;;;;32.75;19.48;;;;;;;8.82;100.00;98243.03;4985182;28;20489;-45
2021/12/17 02:56:35;;;;;;;33.38;18.90;;;;;;;8.39;100.00;98232.34;4994710;28;20066;-51
2021/12/17 02:59:06;;;;;;;36.00;19.77;;;;;;;8.69;100.00;98242.88;4989137;28;20074;-48
2021/12/17 03:01:34;;;;;;;;;;;;;;;8.73;100.00;98247.88;4983980;28;20077;-46
2021/12/17 03:04:03;;;;;;;32.13;18.23;;;;;;;8.82;100.00;98243.88;4997278;28;19964;-50
2021/12/17 03:06:31;;;;;;;33.78;19.30;;;;;;;8.64;100.00;98245.78;4989574;28;20065;-52
2021/12/17 03:09:00;;;;;;;35.25;19.35;;;;;;;8.35;100.00;98247.41;4973280;28;20077;-48
2021/12/17 03:11:29;;;;;;;35.33;19.83;;;;;;;8.93;100.00;98249.34;4987677;28;20068;-49
2021/12/17 03:13:58;;;;;;;35.55;19.77;;;;;;;8.70;100.00;98247.19;4983088;28;20077;-49
2021/12/17 03:16:33;;;;;;;35.50;19.00;;;;;;;8.97;100.00;98239.47;4985152;28;20079;-47
2021/12/17 03:19:08;;;;;;;31.08;18.92;;;;;;;8.86;100.00;98242.75;4992933;28;20069;-48
2021/12/17 03:24:22;;;;;;;35.40;19.92;;;;;;;7.91;100.00;98255.97;4984378;28;20077;-50
2021/12/17 03:26:52;;;;;;;31.42;18.60;;;;;;;8.15;100.00;98250.31;4983815;28;20556;-48
2021/12/17 03:29:21;;;;;;;34.22;20.17;;;;;;;7.91;100.00;98249.88;4981459;28;20069;-51
2021/12/17 03:31:49;;;;;;;33.67;18.38;;;;;;;8.63;100.00;98249.34;4980314;28;20072;-53
2021/12/17 03:34:19;;;;;;;30.58;18.42;;;;;;;8.44;100.00;98251.34;4989339;28;20078;-47
2021/12/17 03:36:53;;;;;;;31.92;19.70;;;;;;;8.74;100.00;98261.84;4985589;28;20469;-51
2021/12/17 03:39:22;;;;;;;33.33;20.20;;;;;;;8.85;100.00;98254.22;4980658;28;20067;-50
2021/12/17 03:41:52;;;;;;;31.08;19.83;;;;;;;9.04;100.00;98256.59;4985338;28;20066;-51
2021/12/17 03:44:21;;;;;;;28.65;17.98;;;;;;;8.31;100.00;98257.25;4986358;28;20073;-51
2021/12/17 03:46:51;;;;;;;32.80;19.48;;;;;;;8.67;100.00;98258.75;4987871;28;20077;-51
2021/12/17 03:49:22;;;;;;;32.10;18.97;;;;;;;8.27;100.00;98254.88;4988493;28;20089;-52
2021/12/17 03:51:53;;;;;;;;;;;;;;;8.35;100.00;98239.50;4990152;28;20558;-49
2021/12/17 03:54:22;;;;;;;28.90;18.38;;;;;;;8.84;100.00;98233.25;4987242;28;19971;-48
2021/12/17 03:56:53;;;;;;;31.00;18.45;;;;;;;8.94;100.00;98235.22;4985728;28;20551;-49
2021/12/17 03:59:22;;;;;;;29.83;18.50;;;;;;;8.56;100.00;98230.44;4985494;28;20088;-49
2021/12/17 04:01:51;;;;;;;31.57;19.23;;;;;;;8.79;100.00;98231.72;4986956;28;20078;-48
2021/12/17 04:04:19;;;;;;;29.35;17.80;;;;;;;8.55;100.00;98214.75;4980294;28;20555;-53
2021/12/17 04:06:48;;;;;;;33.15;18.67;;;;;;;7.90;100.00;98209.63;4987386;28;20082;-55
2021/12/17 04:09:19;;;;;;;33.55;19.45;;;;;;;7.60;100.00;98207.75;4965777;28;20071;-53
2021/12/17 04:11:48;;;;;;;37.53;19.38;;;;;;;7.38;100.00;98204.59;4959836;28;20533;-54
2021/12/17 04:14:19;;;;;;;30.63;19.38;;;;;;;8.12;100.00;98196.16;4956785;28;20824;-54
2021/12/17 04:16:48;;;;;;;35.17;20.15;;;;;;;8.17;100.00;98194.09;4969964;28;20058;-55
2021/12/17 04:19:16;;;;;;;30.95;18.58;;;;;;;7.52;100.00;98194.19;4989105;28;20074;-49
2021/12/17 04:21:46;;;;;;;32.33;18.90;;;;;;;7.57;100.00;98191.31;4969131;28;20085;-54
2021/12/17 04:24:14;;;;;;;37.95;20.45;;;;;;;7.93;100.00;98195.47;4964349;28;20074;-53
2021/12/17 04:26:43;;;;;;;32.28;18.70;;;;;;;8.05;100.00;98187.78;4976878;28;20472;-51
2021/12/17 04:29:12;;;;;;;32.75;19.55;;;;;;;7.66;100.00;98197.84;4978835;28;20561;-52
2021/12/17 04:31:41;;;;;;;35.15;19.33;;;;;;;8.02;100.00;98189.72;4967330;28;20066;-54
2021/12/17 04:34:12;;;;;;;31.63;18.73;;;;;;;7.64;100.00;98178.69;4985878;28;20074;-53
2021/12/17 04:36:40;;;;;;;35.83;19.08;;;;;;;7.75;100.00;98182.44;4983446;28;20101;-49
2021/12/17 04:39:09;;;;;;;34.38;19.10;;;;;;;7.71;100.00;98182.66;4983743;28;20555;-51
2021/12/17 04:41:49;;;;;;;29.52;17.02;;;;;;;7.61;100.00;98179.72;4980934;28;20039;-53
2021/12/17 04:44:25;;;;;;;32.28;18.17;;;;;;;7.30;100.00;98184.00;4973264;28;20069;-47
2021/12/17 04:57:11;;;;;;;29.33;17.38;;;;;;;7.50;100.00;98180.31;4961750;28;20073;-51
2021/12/17 04:58:10;;;;;;;27.45;16.92;;;;;;;6.51;100.00;98188.97;4956355;28;20075;-54
2021/12/17 05:00:38;;;;;;;28.50;16.40;;;;;;;6.39;100.00;98190.41;4989901;28;20127;-52
2021/12/17 05:03:08;;;;;;;28.23;17.10;;;;;;;6.74;100.00;98197.44;4982934;28;20072;-48
2021/12/17 05:05:37;;;;;;;26.30;15.88;;;;;;;6.63;100.00;98203.22;4987995;28;20058;-49
2021/12/17 05:08:10;;;;;;;32.17;17.75;;;;;;;6.47;100.00;98205.78;4985474;28;20081;-47
2021/12/17 05:19:06;;;;;;;27.10;15.60;;;;;;;5.92;100.00;98224.13;4968164;28;20081;-52
2021/12/17 05:21:34;;;;;;;29.35;17.25;;;;;;;5.93;100.00;98218.84;4986418;28;20082;-49
2021/12/17 05:24:03;;;;;;;30.90;17.80;;;;;;;6.35;100.00;98228.19;4991979;28;20070;-51
2021/12/17 05:26:32;;;;;;;31.92;18.38;;;;;;;6.40;100.00;98223.56;4989894;28;20061;-47
2021/12/17 05:29:00;;;;;;;31.75;17.95;;;;;;;6.52;100.00;98221.25;4985024;28;20077;-50
2021/12/17 05:31:29;;;;;;;32.97;19.00;;;;;;;6.90;100.00;98207.06;4963803;28;20066;-52
2021/12/17 05:33:59;;;;;;;30.23;17.08;;;;;;;7.02;100.00;98209.97;4961910;28;20499;-49
2021/12/17 05:36:27;;;;;;;29.73;17.42;;;;;;;6.88;100.00;98219.44;4965924;28;20070;-55
2021/12/17 05:38:56;;;;;;;30.73;17.55;;;;;;;7.08;100.00;98214.91;4965177;28;20066;-53
2021/12/17 05:41:25;;;;;;;29.35;17.10;;;;;;;6.94;100.00;98233.13;4963760;28;20086;-52
2021/12/17 05:43:57;;;;;;;26.33;15.48;;;;;;;6.77;100.00;98242.69;4965476;28;20487;-48
2021/12/17 05:46:38;;;;;;;29.40;15.57;;;;;;;7.06;100.00;98238.63;4964680;28;20097;-49
2021/12/17 05:49:07;;;;;;;39.63;16.95;;;;;;;6.82;100.00;98256.44;4977298;28;20086;-55
2021/12/17 05:51:36;;;;;;;82.13;18.40;;;;;;;6.81;100.00;98261.75;4966849;28;20198;-49
2021/12/17 05:54:04;;;;;;;49.67;16.98;;;;;;;6.55;100.00;98263.91;4964335;28;20517;-49
2021/12/17 05:56:33;;;;;;;97.63;17.98;;;;;;;6.46;100.00;98259.09;4963984;28;20584;-51
2021/12/17 05:59:01;;;;;;;75.07;18.42;;;;;;;6.77;100.00;98261.06;4974905;28;20069;-52
2021/12/17 06:01:30;;;;;;;94.38;18.10;;;;;;;6.69;100.00;98263.22;4985757;28;20470;-51
2021/12/17 06:03:58;;;;;;;66.22;18.85;;;;;;;6.77;100.00;98265.47;4993446;28;20434;-52
2021/12/17 06:06:29;;;;;;;110.68;20.83;;;;;;;6.80;100.00;98260.91;4989678;28;20453;-53
2021/12/17 06:09:00;;;;;;;194.05;23.40;;;;;;;6.45;100.00;98252.16;4967191;28;20070;-50
2021/12/17 06:11:28;;;;;;;101.88;25.95;;;;;;;6.88;100.00;98258.75;4963512;28;20071;-50
2021/12/17 06:13:57;;;;;;;99.00;19.52;;;;;;;7.31;100.00;98253.06;4963953;28;20070;-49
2021/12/17 06:16:27;;;;;;;191.07;23.27;;;;;;;7.19;100.00;98262.44;4966932;28;20089;-49
2021/12/17 06:18:55;;;;;;;131.27;21.00;;;;;;;7.14;100.00;98265.28;4992436;28;20116;-51
2021/12/17 06:21:24;;;;;;;123.03;20.65;;;;;;;7.25;100.00;98267.34;4963237;28;20544;-53
2021/12/17 06:23:54;;;;;;;80.63;19.73;;;;;;;7.43;100.00;98252.41;4985389;28;20076;-52
2021/12/17 06:26:23;;;;;;;162.05;21.23;;;;;;;7.22;100.00;98261.41;4989939;28;20551;-49
2021/12/17 06:28:51;;;;;;;87.07;19.63;;;;;;;7.12;100.00;98263.66;4985313;28;20486;-48
2021/12/17 06:31:21;;;;;;;86.93;19.80;;;;;;;7.37;100.00;98256.22;4986799;28;20105;-54
2021/12/17 06:33:49;;;;;;;177.15;22.58;;;;;;;6.81;100.00;98260.00;4971918;28;20082;-50
2021/12/17 06:36:17;;;;;;;130.05;20.20;;;;;;;7.33;100.00;98249.44;4964575;28;20071;-49
2021/12/17 06:38:46;;;;;;;69.82;19.05;;;;;;;7.39;100.00;98250.88;4983595;28;20486;-52
2021/12/17 06:41:16;;;;;;;82.90;18.08;;;;;;;7.21;100.00;98250.06;4991772;28;20065;-48
2021/12/17 06:43:45;;;;;;;201.50;22.77;;;;;;;6.91;100.00;98257.75;4987758;28;20076;-55
2021/12/17 06:46:20;;;;;;;147.40;20.63;;;;;;;7.17;100.00;98256.41;4988096;28;20101;-50
2021/12/17 06:48:56;;;;;;;139.70;20.38;;;;;;;7.06;100.00;98261.38;4984209;28;20587;-51
2021/12/17 06:59:49;;;;;;;64.60;18.83;;;;;;;7.74;100.00;98251.66;4969798;28;20074;-54
2021/12/17 07:10:39;;;;;;;57.20;17.42;;;;;;;7.16;100.00;98252.09;4964996;28;20513;-53
2021/12/17 07:22:00;;;;;;;72.22;18.80;;;;;;;7.61;100.00;98254.09;4947942;28;20395;-49
2021/12/17 07:33:04;;;;;;;66.72;18.67;;;;;;;7.57;100.00;98259.56;4962731;28;20521;-52
2021/12/17 07:35:44;;;;;;;76.75;20.75;;;;;;;7.77;100.00;98254.09;4977215;28;20635;-49
2021/12/17 07:40:59;;;;;;;193.93;22.83;;;;;;;7.24;100.00;98278.78;4986687;28;20477;-50
2021/12/17 07:43:35;;;;;;;92.95;19.88;;;;;;;7.68;100.00;98277.41;4990755;28;20078;-50
2021/12/17 07:46:07;;;;;;;174.57;24.25;;;;;;;7.82;100.00;98269.63;4969478;28;20174;-53
2021/12/17 07:48:37;;;;;;;122.97;22.15;;;;;;;8.05;100.00;98270.97;4981209;28;20535;-53
2021/12/17 07:51:08;;;;;;;108.05;22.65;;;;;;;7.99;100.00;98272.19;4984614;28;20120;-50
2021/12/17 07:53:39;;;;;;;262.50;25.25;;;;;;;7.30;100.00;98278.47;4984029;28;20619;-52
2021/12/17 07:56:11;;;;;;;66.85;19.83;;;;;;;8.02;100.00;98271.16;4980310;28;20556;-48
2021/12/17 07:58:40;;;;;;;65.05;21.00;;;;;;;7.78;100.00;98271.56;4970980;28;20072;-49
2021/12/17 08:01:11;;;;;;;186.02;23.70;;;;;;;7.83;100.00;98281.81;4985811;28;20073;-54
2021/12/17 08:03:40;;;;;;;92.18;20.42;;;;;;;7.82;100.00;98275.72;4990429;28;20086;-54
2021/12/17 08:06:09;;;;;;;77.05;19.85;;;;;;;8.39;100.00;98269.13;4970516;28;20067;-50
2021/12/17 08:08:38;;;;;;;62.65;20.08;;;;;;;8.49;100.00;98268.53;4969430;28;20082;-51
2021/12/17 08:11:07;;;;;;;110.85;21.73;;;;;;;8.60;100.00;98269.69;4965880;28;20047;-53
2021/12/17 08:13:36;;;;;;;87.38;20.52;;;;;;;8.67;100.00;98265.78;4965157;28;20540;-49
2021/12/17 08:16:16;;;;;;;68.97;19.67;;;;;;;8.76;100.00;98274.00;4964867;28;20082;-56
2021/12/17 08:18:55;;;;;;;168.93;21.95;;;;;;;8.02;100.00;98276.44;4964034;28;21347;-53
2021/12/17 08:26:58;;;;;;;136.63;23.67;;;;;;;7.92;100.00;98257.69;4991118;28;20704;-51
2021/12/17 08:29:43;;;;;;;74.95;22.60;;;;;;;8.24;100.00;98258.53;4989135;28;20072;-53
2021/12/17 08:32:11;;;;;;;47.85;21.27;;;;;;;8.22;100.00;98256.91;4985232;28;20072;-52
2021/12/17 08:34:41;;;;;;;83.60;23.92;;;;;;;8.49;100.00;98257.16;4987212;28;20069;-53
2021/12/17 08:37:10;;;;;;;46.90;20.83;;;;;;;9.07;100.00;98263.47;4994278;28;20548;-54
2021/12/17 08:39:39;;;;;;;78.00;22.58;;;;;;;9.03;100.00;98260.19;4984625;28;20074;-53
2021/12/17 08:42:08;;;;;;;63.33;22.52;;;;;;;8.26;100.00;98268.97;4995090;28;20081;-55
2021/12/17 08:44:36;;;;;;;56.38;22.65;;;;;;;8.25;100.00;98277.75;4997312;28;20072;-50
2021/12/17 08:47:05;;;;;;;45.67;22.77;;;;;;;8.41;100.00;98269.91;4977537;28;20190;-50
2021/12/17 08:49:34;;;;;;;65.95;23.40;;;;;;;9.04;100.00;98267.13;4966458;28;20586;-49
2021/12/17 08:52:09;;;;;;;50.25;21.98;;;;;;;9.34;100.00;98259.19;4965268;28;20155;-50
2021/12/17 08:54:37;;;;;;;;;;;;;;;9.28;100.00;98260.38;4993553;28;20488;-50
2021/12/17 08:57:06;;;;;;;48.42;21.27;;;;;;;8.76;100.00;98254.75;4986774;28;19987;-50
2021/12/17 08:59:35;;;;;;;43.97;21.23;;;;;;;8.78;100.00;98261.63;4977378;28;20084;-49
2021/12/17 09:02:04;;;;;;;44.40;22.25;;;;;;;9.39;100.00;98256.25;4963389;28;20066;-52
2021/12/17 09:04:33;;;;;;;67.13;37.60;;;;;;;9.70;100.00;98253.47;4966214;28;20080;-48
2021/12/17 09:07:01;;;;;;;50.45;23.42;;;;;;;9.44;100.00;98264.75;4964780;28;20093;-47
2021/12/17 09:09:32;;;;;;;54.63;25.55;;;;;;;9.57;100.00;98262.22;4986376;28;20074;-53
2021/12/17 09:12:00;;;;;;;43.15;20.83;;;;;;;9.02;100.00;98269.84;4968999;28;20070;-54
2021/12/17 09:14:28;;;;;;;43.38;23.27;;;;;;;10.03;100.00;98265.47;4963173;28;20062;-53
2021/12/17 09:16:57;;;;;;;47.47;23.60;;;;;;;9.57;100.00;98260.44;4972323;28;20066;-49
2021/12/17 09:19:25;;;;;;;41.47;21.63;;;;;;;9.52;100.00;98251.94;4987574;28;20074;-53
2021/12/17 09:21:54;;;;;;;41.83;21.88;;;;;;;8.96;100.00;98251.78;4991630;28;20189;-55
2021/12/17 09:24:22;;;;;;;38.63;20.30;;;;;;;9.55;100.00;98256.19;4967419;28;20074;-53
2021/12/17 09:26:52;;;;;;;32.33;17.33;;;;;;;9.82;100.00;98251.00;4973942;28;20510;-49
2021/12/17 09:29:20;;;;;;;40.70;20.58;;;;;;;9.66;100.00;98256.38;4976432;28;20084;-55
2021/12/17 09:31:49;;;;;;;38.38;19.75;;;;;;;10.08;100.00;98257.25;4963399;28;20077;-49
2021/12/17 09:34:17;;;;;;;29.95;16.48;;;;;;;9.38;100.00;98257.22;4964593;28;20082;-51
2021/12/17 09:36:46;;;;;;;33.42;17.00;;;;;;;8.95;100.00;98254.53;4988913;28;20085;-55
2021/12/17 09:39:14;;;;;;;27.80;15.18;;;;;;;9.03;100.00;98253.13;4968017;28;20800;-49
2021/12/17 09:41:47;;;;;;;27.70;15.30;;;;;;;9.25;100.00;98247.41;4963040;28;20066;-52
2021/12/17 09:44:16;;;;;;;24.90;14.57;;;;;;;8.68;100.00;98251.72;4960518;28;20062;-49
2021/12/17 09:46:46;;;;;;;20.75;12.23;;;;;;;9.43;100.00;98242.84;4965089;28;20073;-54
2021/12/17 09:49:18;;;;;;;19.10;13.00;;;;;;;9.04;100.00;98248.69;4964343;28;20541;-53
2021/12/17 09:51:47;;;;;;;19.88;12.40;;;;;;;8.85;100.00;98245.47;4987499;28;20077;-52
2021/12/17 09:54:17;;;;;;;21.08;13.30;;;;;;;8.74;100.00;98240.81;4966239;28;20066;-52
2021/12/17 09:56:46;;;;;;;14.73;10.45;;;;;;;9.49;100.00;98246.88;4962687;28;20078;-54
2021/12/17 09:59:16;;;;;;;13.43;9.57;;;;;;;9.17;100.00;98240.94;4964831;28;20811;-49
2021/12/17 10:01:46;;;;;;;9.82;7.78;;;;;;;9.26;100.00;98235.13;4971585;28;20562;-55
2021/12/17 10:04:16;;;;;;;12.30;8.77;;;;;;;8.91;100.00;98242.47;4988713;28;20089;-53
2021/12/17 10:06:45;;;;;;;11.35;8.70;;;;;;;9.02;100.00;98238.28;4956566;28;20094;-54
2021/12/17 10:09:15;;;;;;;10.20;8.40;;;;;;;8.49;100.00;98218.56;4977030;28;20080;-52
2021/12/17 10:12:02;;;;;;;9.70;8.38;;;;;;;8.68;100.00;98228.03;4983774;28;20069;-49
2021/12/17 10:14:32;;;;;;;10.68;8.25;;;;;;;8.76;100.00;98233.69;4993239;28;20072;-52
2021/12/17 10:17:08;;;;;;;12.20;9.77;;;;;;;9.43;100.00;98229.69;4977222;28;20074;-51
2021/12/17 10:19:45;;;;;;;11.15;9.68;;;;;;;8.21;100.00;98227.16;4962110;28;20090;-52
2021/12/17 10:22:15;;;;;;;8.63;7.72;;;;;;;9.41;100.00;98222.81;4961019;28;20113;-48
2021/12/17 10:24:45;;;;;;;9.02;7.35;;;;;;;9.08;100.00;98217.78;4964437;28;20097;-49
2021/12/17 10:27:21;;;;;;;11.63;8.68;;;;;;;9.14;100.00;98220.91;4960573;28;20070;-48
2021/12/17 10:29:51;;;;;;;9.93;8.35;;;;;;;9.31;100.00;98222.50;4964338;28;20135;-50
2021/12/17 10:32:22;;;;;;;9.23;7.65;;;;;;;8.31;100.00;98235.38;4963340;28;20066;-50
2021/12/17 10:35:01;;;;;;;7.80;6.75;;;;;;;8.56;100.00;98243.56;4972715;28;20587;-52
2021/12/17 10:37:38;;;;;;;7.70;6.90;;;;;;;9.18;100.00;98242.63;4982362;28;20079;-56
2021/12/17 10:40:24;;;;;;;9.48;8.07;;;;;;;8.83;100.00;98240.28;4963896;28;20078;-51
2021/12/17 10:43:07;;;;;;;8.27;7.10;;;;;;;7.87;100.00;98240.47;4964409;28;20097;-55
2021/12/17 10:45:41;;;;;;;10.93;8.00;;;;;;;8.32;100.00;98240.53;4962574;28;20145;-49
2021/12/17 10:48:33;;;;;;;9.25;7.97;;;;;;;7.95;100.00;98249.63;4959344;28;20058;-54
2021/12/17 10:51:14;;;;;;;10.55;8.27;;;;;;;8.48;100.00;98239.72;4977069;28;20458;-55
2021/12/17 10:53:46;;;;;;;9.13;7.88;;;;;;;8.98;100.00;98239.41;4971438;28;20081;-54
2021/12/17 10:56:16;;;;;;;9.50;8.20;;;;;;;9.33;100.00;98240.88;4962975;28;20066;-50
2021/12/17 10:58:58;;;;;;;9.68;7.95;;;;;;;9.19;100.00;98234.63;4963297;28;20069;-55
2021/12/17 11:01:36;;;;;;;71.03;62.53;;;;;;;9.54;100.00;98231.66;4969490;28;20727;-50
2021/12/17 11:04:11;;;;;;;22.13;18.15;;;;;;;8.87;100.00;98240.97;4987720;28;20093;-50
2021/12/17 11:06:44;;;;;;;21.23;16.38;;;;;;;9.08;100.00;98233.56;4957622;28;20584;-48
2021/12/17 11:09:13;;;;;;;16.83;14.38;;;;;;;8.88;100.00;98245.28;4963420;28;20513;-48
2021/12/17 11:11:42;;;;;;;14.98;11.38;;;;;;;9.10;100.00;98227.28;4961049;28;20076;-47
2021/12/17 11:14:11;;;;;;;14.38;11.18;;;;;;;9.11;100.00;98225.50;4974723;28;20069;-52
2021/12/17 11:16:41;;;;;;;14.63;11.35;;;;;;;9.15;100.00;98229.63;4993165;28;20076;-52
2021/12/17 11:19:09;;;;;;;16.05;11.90;;;;;;;9.14;100.00;98227.94;4988654;28;20077;-52
2021/12/17 11:21:38;;;;;;;14.07;11.20;;;;;;;9.74;100.00;98207.53;4994481;28;20074;-46
2021/12/17 11:24:07;;;;;;;13.18;10.60;;;;;;;9.88;100.00;98209.31;4984760;28;20077;-53
2021/12/17 11:26:35;;;;;;;13.52;9.85;;;;;;;10.31;100.00;98216.28;4973701;28;20105;-52
2021/12/17 11:29:04;;;;;;;11.82;9.55;;;;;;;9.79;100.00;98203.78;4981976;28;20066;-52
2021/12/17 11:31:33;;;;;;;11.38;9.07;;;;;;;10.59;100.00;98200.31;4987463;28;20069;-48
2021/12/17 11:34:03;;;;;;;10.77;8.13;;;;;;;10.88;100.00;98201.03;4990403;28;20074;-51
2021/12/17 11:36:31;;;;;;;13.80;10.40;;;;;;;10.40;100.00;98210.41;4966860;28;20070;-51
2021/12/17 11:39:05;;;;;;;9.05;6.85;;;;;;;10.55;100.00;98203.28;4965041;28;20066;-50
2021/12/17 11:41:44;;;;;;;11.35;7.82;;;;;;;10.10;100.00;98216.69;4967537;28;20066;-49
2021/12/17 11:44:14;;;;;;;13.15;8.48;;;;;;;10.12;100.00;98211.31;4976189;28;20066;-52
2021/12/17 11:46:43;;;;;;;10.55;8.05;;;;;;;10.12;100.00;98220.09;4991350;28;20073;-48
2021/12/17 11:49:23;;;;;;;11.18;7.47;;;;;;;10.56;100.00;98200.53;4978747;28;20065;-51
2021/12/17 11:51:54;;;;;;;11.70;8.57;;;;;;;10.67;100.00;98207.75;4969207;28;20082;-50
2021/12/17 11:54:30;;;;;;;11.38;8.07;;;;;;;10.53;100.00;98207.78;4985774;28;20069;-47
2021/12/17 11:57:06;;;;;;;12.00;8.70;;;;;;;10.29;100.00;98202.34;4993342;28;20073;-49
2021/12/17 11:59:37;;;;;;;11.68;7.72;;;;;;;10.41;100.00;98206.81;4973793;28;20096;-50
2021/12/17 12:02:11;;;;;;;11.40;7.57;;;;;;;10.07;100.00;98195.78;4962084;28;20121;-53
2021/12/17 12:04:53;;;;;;;13.07;8.82;;;;;;;10.16;100.00;98197.00;4964910;28;20070;-50
2021/12/17 12:07:33;;;;;;;14.13;9.23;;;;;;;9.66;100.00;98186.09;4989283;28;20452;-50
2021/12/17 12:10:22;;;;;;;15.90;9.77;;;;;;;10.64;100.00;98189.47;4986181;28;20078;-51
2021/12/17 12:13:01;;;;;;;16.52;10.45;;;;;;;9.77;100.00;98193.31;4983828;28;20485;-51
2021/12/17 12:15:32;;;;;;;23.30;13.27;;;;;;;9.63;100.00;98198.59;4994064;28;20077;-49
2021/12/17 12:18:09;;;;;;;18.58;11.75;;;;;;;9.16;100.00;98202.41;4967281;28;20067;-49
2021/12/17 12:20:41;;;;;;;15.88;10.13;;;;;;;9.54;100.00;98199.19;4960858;28;20066;-50
2021/12/17 12:23:17;;;;;;;19.65;11.77;;;;;;;9.49;100.00;98205.56;4961427;28;20076;-48
2021/12/17 12:25:46;;;;;;;19.63;11.15;;;;;;;9.48;100.00;98203.03;4967819;28;20045;-51
2021/12/17 12:28:15;;;;;;;18.13;11.50;;;;;;;9.18;100.00;98205.75;4984481;28;20069;-49
2021/12/17 12:30:45;;;;;;;19.58;12.23;;;;;;;8.66;100.00;98207.06;4992806;28;20547;-52
2021/12/17 12:33:14;;;;;;;25.58;16.02;;;;;;;8.85;100.00;98212.13;4981213;28;20066;-48
2021/12/17 12:35:58;;;;;;;16.92;10.35;;;;;;;8.71;100.00;98198.94;4994041;28;20089;-48
2021/12/17 12:38:31;;;;;;;17.58;11.10;;;;;;;9.54;100.00;98191.28;4989348;28;20069;-53
2021/12/17 12:41:03;;;;;;;17.52;11.00;;;;;;;9.56;100.00;98197.28;4987383;28;20066;-52
2021/12/17 12:43:34;;;;;;;15.80;11.27;;;;;;;9.55;100.00;98196.47;4987297;28;20112;-52
2021/12/17 12:46:03;;;;;;;;;;;;;;;9.76;100.00;98191.63;5005941;28;20069;-51
2021/12/17 12:48:33;;;;;;;15.63;10.77;;;;;;;9.40;100.00;98190.34;4962658;28;20312;-51
2021/12/17 12:51:16;;;;;;;;;;;;;;;9.51;100.00;98192.31;4984346;28;20077;-47
2021/12/17 12:53:46;;;;;;;17.23;12.02;;;;;;;9.01;100.00;98190.97;4970821;28;19965;-49
2021/12/17 12:56:19;;;;;;;17.63;12.15;;;;;;;9.22;100.00;98186.19;4964589;28;20074;-48
2021/12/17 12:58:50;;;;;;;17.85;11.95;;;;;;;9.07;100.00;98192.41;4962908;28;20066;-50
2021/12/17 13:01:20;;;;;;;17.73;12.63;;;;;;;8.80;100.00;98191.31;4963392;28;20548;-49
2021/12/17 13:03:53;;;;;;;19.98;13.55;;;;;;;8.16;100.00;98194.19;4967925;28;20066;-49
2021/12/17 13:06:25;;;;;;;19.85;14.07;;;;;;;8.45;100.00;98197.81;4962027;28;20073;-50
2021/12/17 13:08:54;;;;;;;20.30;13.32;;;;;;;8.07;100.00;98185.03;4962060;28;20078;-48
2021/12/17 13:11:24;;;;;;;19.08;13.18;;;;;;;8.83;100.00;98184.19;4958984;28;20066;-54
2021/12/17 13:13:54;;;;;;;19.20;13.25;;;;;;;8.92;100.00;98188.94;4965379;28;20077;-51
2021/12/17 13:16:35;;;;;;;18.42;13.10;;;;;;;8.02;100.00;98187.94;4964480;28;20538;-49
2021/12/17 13:22:02;;;;;;;20.55;13.85;;;;;;;8.35;100.00;98205.34;4988454;28;20647;-48
2021/12/17 13:24:35;;;;;;;22.23;13.50;;;;;;;8.52;100.00;98209.66;4990459;28;20658;-53
2021/12/17 13:27:09;;;;;;;20.58;13.63;;;;;;;7.98;100.00;98212.69;4986564;28;20096;-55
2021/12/17 13:29:39;;;;;;;24.05;15.02;;;;;;;8.43;100.00;98221.56;4971526;28;20090;-50
2021/12/17 13:32:09;;;;;;;20.80;14.18;;;;;;;8.50;100.00;98216.81;4974477;28;20069;-54
2021/12/17 13:34:40;;;;;;;20.77;13.77;;;;;;;8.15;100.00;98219.59;4986193;28;20066;-52
2021/12/17 13:37:12;;;;;;;19.02;12.95;;;;;;;8.02;100.00;98223.88;4965997;28;20575;-53
2021/12/17 13:39:44;;;;;;;21.52;14.10;;;;;;;8.60;100.00;98217.09;4989492;28;20093;-56
2021/12/17 13:42:15;;;;;;;18.10;12.65;;;;;;;7.78;100.00;98219.03;4967731;28;20070;-48
2021/12/17 13:44:46;;;;;;;18.98;12.90;;;;;;;7.70;100.00;98228.25;4979514;28;20117;-56
2021/12/17 13:47:20;;;;;;;19.90;13.27;;;;;;;8.03;100.00;98233.44;4975195;28;20061;-50
2021/12/17 13:49:50;;;;;;;19.25;13.80;;;;;;;7.43;100.00;98235.81;4965806;28;20062;-54
2021/12/17 13:52:23;;;;;;;17.80;12.75;;;;;;;7.60;100.00;98230.53;4966616;28;20074;-50
2021/12/17 13:54:55;;;;;;;23.35;16.45;;;;;;;7.09;100.00;98237.63;4984926;28;20089;-51